This is the latest recevied weather packets stored in our database for station/object F1PPH-2. If no packets are shown the sender has not sent any weather packets the latest 10 day(s).
| Time | Temp. | Humidity | Pressure | Rain* | Wind** | Luminosity | Snow |
|---|---|---|---|---|---|---|---|
| 1787709211 | 21.11° C | 47% | 1005.7 hPa | - | - | - | - |
| 1787705611 | 21.67° C | 46% | 1005.7 hPa | - | - | - | - |
| 1787702013 | 22.22° C | 46% | 1005.4 hPa | - | - | - | - |
| 1787699130 | 23.33° C | 46% | 1005.3 hPa | - | - | - | - |
| 1787696250 | 23.89° C | 46% | 1005.3 hPa | - | - | - | - |
| 1787692649 | 24.44° C | 46% | 1005 hPa | - | - | - | - |
| 1787689050 | 24.44° C | 45% | 1004.4 hPa | - | - | - | - |
| 1787685449 | 25.56° C | 45% | 1003.7 hPa | - | - | - | - |
| 1787681849 | 26.67° C | 44% | 1003.3 hPa | - | - | - | - |
| 1787674648 | 32.78° C | 40% | 1002.6 hPa | - | - | - | - |
| 1787668889 | 37.22° C | 38% | 1002.6 hPa | - | - | - | - |
| 1787666011 | 36.67° C | 37% | 1003.2 hPa | - | - | - | - |
| 1787662656 | 35° C | 38% | 1003 hPa | - | - | - | - |
| 1787659775 | 31.11° C | 39% | 1003.2 hPa | - | - | - | - |
| 1787656899 | 26.67° C | 42% | 1003 hPa | - | - | - | - |
| 1787654013 | 28.89° C | 41% | 1002.6 hPa | - | - | - | - |
| 1787650413 | 48.89° C | 26% | 1001.8 hPa | - | - | - | - |
| 1787646812 | 49.44° C | 25% | 1003.6 hPa | - | - | - | - |
| 1787643933 | 42.22° C | 31% | 1002.4 hPa | - | - | - | - |
| 1787640332 | 30.56° C | 39% | 1002.1 hPa | - | - | - | - |
| 1787633850 | 18.33° C | 44% | 1001.6 hPa | - | - | - | - |
| 1787630254 | 18.33° C | 44% | 1001.1 hPa | - | - | - | - |
| 1787626651 | 18.89° C | 43% | 1001.2 hPa | - | - | - | - |
| 1787623050 | 19.44° C | 42% | 1001.5 hPa | - | - | - | - |
| 1787619450 | 20° C | 41% | 1001.4 hPa | - | - | - | - |
* Rain since midnight (hover to see other rain measurements)
** Current wind speed in m/s (hover to see current wind gust speed)